sensor_id;sensor_type;location;lat;lon;timestamp;temperature;humidity
53748;DHT22;39655;53.210;5.768;2023-06-05T00:01:06;12.80;78.30
53748;DHT22;39655;53.210;5.768;2023-06-05T00:03:35;12.80;78.20
53748;DHT22;39655;53.210;5.768;2023-06-05T00:06:03;12.80;78.00
53748;DHT22;39655;53.210;5.768;2023-06-05T00:08:29;12.80;77.70
53748;DHT22;39655;53.210;5.768;2023-06-05T00:10:55;12.90;77.40
53748;DHT22;39655;53.210;5.768;2023-06-05T00:13:21;12.80;77.30
53748;DHT22;39655;53.210;5.768;2023-06-05T00:15:47;12.80;77.40
53748;DHT22;39655;53.210;5.768;2023-06-05T00:18:13;12.80;77.30
53748;DHT22;39655;53.210;5.768;2023-06-05T00:20:39;12.70;77.30
53748;DHT22;39655;53.210;5.768;2023-06-05T00:23:06;12.70;77.20
53748;DHT22;39655;53.210;5.768;2023-06-05T00:25:31;12.60;77.60
53748;DHT22;39655;53.210;5.768;2023-06-05T00:27:57;12.60;77.50
53748;DHT22;39655;53.210;5.768;2023-06-05T00:30:23;12.60;77.30
53748;DHT22;39655;53.210;5.768;2023-06-05T00:32:49;12.60;77.60
53748;DHT22;39655;53.210;5.768;2023-06-05T00:35:15;12.60;77.60
53748;DHT22;39655;53.210;5.768;2023-06-05T00:37:41;12.60;77.50
53748;DHT22;39655;53.210;5.768;2023-06-05T00:40:07;12.60;77.20
53748;DHT22;39655;53.210;5.768;2023-06-05T00:42:33;12.60;77.70
53748;DHT22;39655;53.210;5.768;2023-06-05T00:44:58;12.50;78.00
53748;DHT22;39655;53.210;5.768;2023-06-05T00:47:24;12.40;78.30
53748;DHT22;39655;53.210;5.768;2023-06-05T00:49:51;12.50;77.80
53748;DHT22;39655;53.210;5.768;2023-06-05T00:52:16;12.50;77.70
53748;DHT22;39655;53.210;5.768;2023-06-05T00:54:43;12.50;78.00
53748;DHT22;39655;53.210;5.768;2023-06-05T00:57:09;12.40;78.10
53748;DHT22;39655;53.210;5.768;2023-06-05T00:59:36;12.40;78.60
53748;DHT22;39655;53.210;5.768;2023-06-05T01:02:02;12.40;78.30
53748;DHT22;39655;53.210;5.768;2023-06-05T01:04:31;12.40;78.80
53748;DHT22;39655;53.210;5.768;2023-06-05T01:06:59;12.40;78.60
53748;DHT22;39655;53.210;5.768;2023-06-05T01:09:26;12.50;78.80
53748;DHT22;39655;53.210;5.768;2023-06-05T01:14:35;12.50;78.30
53748;DHT22;39655;53.210;5.768;2023-06-05T01:17:02;12.50;78.60
53748;DHT22;39655;53.210;5.768;2023-06-05T01:19:30;12.60;78.70
53748;DHT22;39655;53.210;5.768;2023-06-05T01:21:59;12.60;79.00
53748;DHT22;39655;53.210;5.768;2023-06-05T01:24:25;12.60;78.40
53748;DHT22;39655;53.210;5.768;2023-06-05T01:32:05;12.60;78.70
53748;DHT22;39655;53.210;5.768;2023-06-05T01:34:34;12.50;79.00
53748;DHT22;39655;53.210;5.768;2023-06-05T01:37:02;12.50;78.80
53748;DHT22;39655;53.210;5.768;2023-06-05T01:39:29;12.50;78.40
53748;DHT22;39655;53.210;5.768;2023-06-05T01:41:55;12.40;78.30
53748;DHT22;39655;53.210;5.768;2023-06-05T01:44:22;12.50;78.40
53748;DHT22;39655;53.210;5.768;2023-06-05T01:46:49;12.40;78.30
53748;DHT22;39655;53.210;5.768;2023-06-05T01:49:15;12.40;78.30
53748;DHT22;39655;53.210;5.768;2023-06-05T01:51:42;12.40;78.30
53748;DHT22;39655;53.210;5.768;2023-06-05T01:54:07;12.40;78.30
53748;DHT22;39655;53.210;5.768;2023-06-05T01:56:34;12.40;78.10
53748;DHT22;39655;53.210;5.768;2023-06-05T01:59:02;12.40;77.80
53748;DHT22;39655;53.210;5.768;2023-06-05T02:01:32;12.40;77.70
53748;DHT22;39655;53.210;5.768;2023-06-05T02:03:58;12.40;77.50
53748;DHT22;39655;53.210;5.768;2023-06-05T02:06:24;12.30;77.30
53748;DHT22;39655;53.210;5.768;2023-06-05T02:08:50;12.30;77.30
53748;DHT22;39655;53.210;5.768;2023-06-05T02:11:16;12.20;77.50
53748;DHT22;39655;53.210;5.768;2023-06-05T02:13:42;12.20;77.60
53748;DHT22;39655;53.210;5.768;2023-06-05T02:16:11;12.20;77.60
53748;DHT22;39655;53.210;5.768;2023-06-05T02:18:37;12.30;77.30
53748;DHT22;39655;53.210;5.768;2023-06-05T02:21:04;12.30;77.60
53748;DHT22;39655;53.210;5.768;2023-06-05T02:23:30;12.20;78.30
53748;DHT22;39655;53.210;5.768;2023-06-05T02:25:56;12.20;78.00
53748;DHT22;39655;53.210;5.768;2023-06-05T02:28:22;12.20;78.40
53748;DHT22;39655;53.210;5.768;2023-06-05T02:30:47;12.20;78.10
53748;DHT22;39655;53.210;5.768;2023-06-05T02:33:14;12.20;77.80
53748;DHT22;39655;53.210;5.768;2023-06-05T02:35:40;12.20;77.60
53748;DHT22;39655;53.210;5.768;2023-06-05T02:38:09;12.20;77.60
53748;DHT22;39655;53.210;5.768;2023-06-05T02:40:38;12.20;78.00
53748;DHT22;39655;53.210;5.768;2023-06-05T02:43:04;12.20;77.60
53748;DHT22;39655;53.210;5.768;2023-06-05T02:45:33;12.20;78.00
53748;DHT22;39655;53.210;5.768;2023-06-05T02:47:59;12.20;78.10
53748;DHT22;39655;53.210;5.768;2023-06-05T02:50:24;12.20;78.00
53748;DHT22;39655;53.210;5.768;2023-06-05T02:52:50;12.20;77.90
53748;DHT22;39655;53.210;5.768;2023-06-05T02:55:16;12.20;78.00
53748;DHT22;39655;53.210;5.768;2023-06-05T02:57:42;12.20;78.00
53748;DHT22;39655;53.210;5.768;2023-06-05T03:00:11;12.20;79.10
53748;DHT22;39655;53.210;5.768;2023-06-05T03:02:45;12.20;78.60
53748;DHT22;39655;53.210;5.768;2023-06-05T03:05:15;12.20;79.30
53748;DHT22;39655;53.210;5.768;2023-06-05T03:07:41;12.20;78.70
53748;DHT22;39655;53.210;5.768;2023-06-05T03:10:08;12.20;79.00
53748;DHT22;39655;53.210;5.768;2023-06-05T03:12:33;12.20;78.50
53748;DHT22;39655;53.210;5.768;2023-06-05T03:14:59;12.20;79.00
53748;DHT22;39655;53.210;5.768;2023-06-05T03:17:26;12.20;78.20
53748;DHT22;39655;53.210;5.768;2023-06-05T03:19:52;12.20;78.60
53748;DHT22;39655;53.210;5.768;2023-06-05T03:22:18;12.20;78.70
53748;DHT22;39655;53.210;5.768;2023-06-05T03:24:45;12.10;78.50
53748;DHT22;39655;53.210;5.768;2023-06-05T03:27:11;12.20;78.90
53748;DHT22;39655;53.210;5.768;2023-06-05T03:29:37;12.10;78.60
53748;DHT22;39655;53.210;5.768;2023-06-05T03:32:03;12.20;78.60
53748;DHT22;39655;53.210;5.768;2023-06-05T03:34:31;12.20;78.60
53748;DHT22;39655;53.210;5.768;2023-06-05T03:36:58;12.20;78.50
53748;DHT22;39655;53.210;5.768;2023-06-05T03:39:24;12.20;78.60
53748;DHT22;39655;53.210;5.768;2023-06-05T03:41:52;12.20;78.50
53748;DHT22;39655;53.210;5.768;2023-06-05T03:44:18;12.10;78.40
53748;DHT22;39655;53.210;5.768;2023-06-05T03:46:43;12.10;78.30
53748;DHT22;39655;53.210;5.768;2023-06-05T03:49:10;12.10;78.30
53748;DHT22;39655;53.210;5.768;2023-06-05T03:51:36;12.10;78.30
53748;DHT22;39655;53.210;5.768;2023-06-05T03:54:02;12.20;78.20
53748;DHT22;39655;53.210;5.768;2023-06-05T03:56:29;12.20;78.00
53748;DHT22;39655;53.210;5.768;2023-06-05T03:59:00;12.20;78.20
53748;DHT22;39655;53.210;5.768;2023-06-05T04:01:35;12.30;77.90
53748;DHT22;39655;53.210;5.768;2023-06-05T04:04:03;12.20;78.20
53748;DHT22;39655;53.210;5.768;2023-06-05T04:06:31;12.20;78.20
53748;DHT22;39655;53.210;5.768;2023-06-05T04:08:58;12.20;78.20
53748;DHT22;39655;53.210;5.768;2023-06-05T04:11:24;12.30;78.30
53748;DHT22;39655;53.210;5.768;2023-06-05T04:13:56;12.30;78.30
53748;DHT22;39655;53.210;5.768;2023-06-05T04:16:21;12.30;78.10
53748;DHT22;39655;53.210;5.768;2023-06-05T04:18:47;12.30;78.10
53748;DHT22;39655;53.210;5.768;2023-06-05T04:21:13;12.30;78.10
53748;DHT22;39655;53.210;5.768;2023-06-05T04:23:39;12.30;78.10
53748;DHT22;39655;53.210;5.768;2023-06-05T04:26:05;12.30;78.20
53748;DHT22;39655;53.210;5.768;2023-06-05T04:28:31;12.40;78.10
53748;DHT22;39655;53.210;5.768;2023-06-05T04:30:57;12.40;78.00
53748;DHT22;39655;53.210;5.768;2023-06-05T04:33:22;12.30;77.70
53748;DHT22;39655;53.210;5.768;2023-06-05T04:35:48;12.40;77.70
53748;DHT22;39655;53.210;5.768;2023-06-05T04:38:14;12.50;77.60
53748;DHT22;39655;53.210;5.768;2023-06-05T04:40:40;12.50;77.60
53748;DHT22;39655;53.210;5.768;2023-06-05T04:43:09;12.50;77.50
53748;DHT22;39655;53.210;5.768;2023-06-05T04:45:34;12.60;77.10
53748;DHT22;39655;53.210;5.768;2023-06-05T04:48:00;12.60;76.90
53748;DHT22;39655;53.210;5.768;2023-06-05T04:50:27;12.60;76.80
53748;DHT22;39655;53.210;5.768;2023-06-05T04:52:54;12.60;76.50
53748;DHT22;39655;53.210;5.768;2023-06-05T04:55:20;12.60;76.60
53748;DHT22;39655;53.210;5.768;2023-06-05T04:57:46;12.70;76.50
53748;DHT22;39655;53.210;5.768;2023-06-05T05:00:14;12.70;76.50
53748;DHT22;39655;53.210;5.768;2023-06-05T05:02:40;12.70;76.60
53748;DHT22;39655;53.210;5.768;2023-06-05T05:05:06;12.90;76.40
53748;DHT22;39655;53.210;5.768;2023-06-05T05:07:32;12.90;76.40
53748;DHT22;39655;53.210;5.768;2023-06-05T05:10:02;12.90;76.20
53748;DHT22;39655;53.210;5.768;2023-06-05T05:12:28;12.90;76.10
53748;DHT22;39655;53.210;5.768;2023-06-05T05:14:54;13.00;76.00
53748;DHT22;39655;53.210;5.768;2023-06-05T05:17:19;13.00;76.00
53748;DHT22;39655;53.210;5.768;2023-06-05T05:19:46;13.00;75.90
53748;DHT22;39655;53.210;5.768;2023-06-05T05:22:11;13.10;75.80
53748;DHT22;39655;53.210;5.768;2023-06-05T05:24:37;13.10;75.90
53748;DHT22;39655;53.210;5.768;2023-06-05T05:27:03;13.10;75.50
53748;DHT22;39655;53.210;5.768;2023-06-05T05:29:29;13.10;75.60
53748;DHT22;39655;53.210;5.768;2023-06-05T05:31:55;13.20;75.40
53748;DHT22;39655;53.210;5.768;2023-06-05T05:34:21;13.10;75.50
53748;DHT22;39655;53.210;5.768;2023-06-05T05:36:47;13.10;75.20
53748;DHT22;39655;53.210;5.768;2023-06-05T05:39:12;13.10;75.30
53748;DHT22;39655;53.210;5.768;2023-06-05T05:41:38;13.00;75.50
53748;DHT22;39655;53.210;5.768;2023-06-05T05:44:04;13.10;75.60
53748;DHT22;39655;53.210;5.768;2023-06-05T05:46:29;13.10;76.00
53748;DHT22;39655;53.210;5.768;2023-06-05T05:48:55;13.20;75.50
53748;DHT22;39655;53.210;5.768;2023-06-05T05:51:20;13.10;75.50
53748;DHT22;39655;53.210;5.768;2023-06-05T05:53:46;13.20;75.80
53748;DHT22;39655;53.210;5.768;2023-06-05T05:56:12;13.20;75.70
53748;DHT22;39655;53.210;5.768;2023-06-05T05:58:38;13.30;75.80
53748;DHT22;39655;53.210;5.768;2023-06-05T06:01:03;13.40;75.40
53748;DHT22;39655;53.210;5.768;2023-06-05T06:03:29;13.40;75.50
53748;DHT22;39655;53.210;5.768;2023-06-05T06:05:55;13.40;75.50
53748;DHT22;39655;53.210;5.768;2023-06-05T06:08:22;13.40;75.40
53748;DHT22;39655;53.210;5.768;2023-06-05T06:10:48;13.40;75.10
53748;DHT22;39655;53.210;5.768;2023-06-05T06:13:14;13.40;75.60
53748;DHT22;39655;53.210;5.768;2023-06-05T06:15:39;13.50;75.30
53748;DHT22;39655;53.210;5.768;2023-06-05T06:18:06;13.60;74.90
53748;DHT22;39655;53.210;5.768;2023-06-05T06:20:32;13.50;74.60
53748;DHT22;39655;53.210;5.768;2023-06-05T06:22:59;13.50;75.00
53748;DHT22;39655;53.210;5.768;2023-06-05T06:25:25;13.60;75.10
53748;DHT22;39655;53.210;5.768;2023-06-05T06:27:55;13.70;74.90
53748;DHT22;39655;53.210;5.768;2023-06-05T06:30:21;13.70;74.60
53748;DHT22;39655;53.210;5.768;2023-06-05T06:32:47;13.80;74.10
53748;DHT22;39655;53.210;5.768;2023-06-05T06:35:13;13.80;73.40
53748;DHT22;39655;53.210;5.768;2023-06-05T06:37:40;13.80;73.30
53748;DHT22;39655;53.210;5.768;2023-06-05T06:40:06;13.80;73.70
53748;DHT22;39655;53.210;5.768;2023-06-05T06:42:37;13.80;73.10
53748;DHT22;39655;53.210;5.768;2023-06-05T06:45:03;13.90;73.30
53748;DHT22;39655;53.210;5.768;2023-06-05T06:47:30;13.90;73.20
53748;DHT22;39655;53.210;5.768;2023-06-05T06:49:56;14.00;73.30
53748;DHT22;39655;53.210;5.768;2023-06-05T06:52:22;14.10;72.60
53748;DHT22;39655;53.210;5.768;2023-06-05T06:54:49;14.20;71.80
53748;DHT22;39655;53.210;5.768;2023-06-05T06:57:15;14.20;71.90
53748;DHT22;39655;53.210;5.768;2023-06-05T06:59:40;14.30;72.00
53748;DHT22;39655;53.210;5.768;2023-06-05T07:02:14;14.40;71.70
53748;DHT22;39655;53.210;5.768;2023-06-05T07:04:42;14.50;71.20
53748;DHT22;39655;53.210;5.768;2023-06-05T07:07:13;14.40;70.70
53748;DHT22;39655;53.210;5.768;2023-06-05T07:09:43;14.40;70.60
53748;DHT22;39655;53.210;5.768;2023-06-05T07:12:10;14.50;70.70
53748;DHT22;39655;53.210;5.768;2023-06-05T07:14:37;14.50;70.10
53748;DHT22;39655;53.210;5.768;2023-06-05T07:17:03;14.40;70.50
53748;DHT22;39655;53.210;5.768;2023-06-05T07:19:30;14.40;70.70
53748;DHT22;39655;53.210;5.768;2023-06-05T07:21:57;14.60;70.70
53748;DHT22;39655;53.210;5.768;2023-06-05T07:24:28;14.50;70.20
53748;DHT22;39655;53.210;5.768;2023-06-05T07:26:56;14.40;69.90
53748;DHT22;39655;53.210;5.768;2023-06-05T07:29:22;14.40;70.70
53748;DHT22;39655;53.210;5.768;2023-06-05T07:31:50;14.40;70.20
53748;DHT22;39655;53.210;5.768;2023-06-05T07:34:18;14.40;70.40
53748;DHT22;39655;53.210;5.768;2023-06-05T07:36:45;14.40;70.70
53748;DHT22;39655;53.210;5.768;2023-06-05T07:39:11;14.60;70.20
53748;DHT22;39655;53.210;5.768;2023-06-05T07:41:38;14.70;70.40
53748;DHT22;39655;53.210;5.768;2023-06-05T07:44:07;14.90;70.20
53748;DHT22;39655;53.210;5.768;2023-06-05T07:46:33;15.10;69.00
53748;DHT22;39655;53.210;5.768;2023-06-05T07:48:58;15.20;68.80
53748;DHT22;39655;53.210;5.768;2023-06-05T07:51:24;15.40;69.10
53748;DHT22;39655;53.210;5.768;2023-06-05T07:53:50;15.50;68.50
53748;DHT22;39655;53.210;5.768;2023-06-05T07:56:17;15.50;68.20
53748;DHT22;39655;53.210;5.768;2023-06-05T07:58:42;15.40;68.00
53748;DHT22;39655;53.210;5.768;2023-06-05T08:01:09;15.40;67.50
53748;DHT22;39655;53.210;5.768;2023-06-05T08:03:35;15.30;67.70
53748;DHT22;39655;53.210;5.768;2023-06-05T08:06:03;15.20;68.00
53748;DHT22;39655;53.210;5.768;2023-06-05T08:08:29;15.30;68.20
53748;DHT22;39655;53.210;5.768;2023-06-05T08:10:55;15.40;68.50
53748;DHT22;39655;53.210;5.768;2023-06-05T08:13:21;15.50;68.40
53748;DHT22;39655;53.210;5.768;2023-06-05T08:15:47;15.60;68.20
53748;DHT22;39655;53.210;5.768;2023-06-05T08:18:13;15.50;67.80
53748;DHT22;39655;53.210;5.768;2023-06-05T08:20:39;15.40;68.10
53748;DHT22;39655;53.210;5.768;2023-06-05T08:23:05;15.40;68.40
53748;DHT22;39655;53.210;5.768;2023-06-05T08:25:31;15.40;68.30
53748;DHT22;39655;53.210;5.768;2023-06-05T08:27:57;15.50;68.40
53748;DHT22;39655;53.210;5.768;2023-06-05T08:30:23;15.60;68.20
53748;DHT22;39655;53.210;5.768;2023-06-05T08:32:48;15.70;67.30
53748;DHT22;39655;53.210;5.768;2023-06-05T08:35:14;15.70;67.90
53748;DHT22;39655;53.210;5.768;2023-06-05T08:37:40;15.80;67.00
53748;DHT22;39655;53.210;5.768;2023-06-05T08:40:06;16.00;67.50
53748;DHT22;39655;53.210;5.768;2023-06-05T08:42:34;16.10;67.30
53748;DHT22;39655;53.210;5.768;2023-06-05T08:45:00;16.20;65.60
53748;DHT22;39655;53.210;5.768;2023-06-05T08:47:28;16.10;65.70
53748;DHT22;39655;53.210;5.768;2023-06-05T08:49:56;15.90;65.50
53748;DHT22;39655;53.210;5.768;2023-06-05T08:52:23;16.00;66.50
53748;DHT22;39655;53.210;5.768;2023-06-05T08:54:49;16.30;66.10
53748;DHT22;39655;53.210;5.768;2023-06-05T08:57:16;16.60;66.00
53748;DHT22;39655;53.210;5.768;2023-06-05T08:59:42;16.80;64.50
53748;DHT22;39655;53.210;5.768;2023-06-05T09:02:09;16.90;64.50
53748;DHT22;39655;53.210;5.768;2023-06-05T09:04:35;16.80;62.70
53748;DHT22;39655;53.210;5.768;2023-06-05T09:07:01;16.60;62.90
53748;DHT22;39655;53.210;5.768;2023-06-05T09:09:27;16.50;62.90
53748;DHT22;39655;53.210;5.768;2023-06-05T09:12:06;16.50;64.00
53748;DHT22;39655;53.210;5.768;2023-06-05T09:14:33;16.70;63.10
53748;DHT22;39655;53.210;5.768;2023-06-05T09:17:00;16.70;63.60
53748;DHT22;39655;53.210;5.768;2023-06-05T09:19:37;16.70;64.50
53748;DHT22;39655;53.210;5.768;2023-06-05T09:22:05;17.00;62.00
53748;DHT22;39655;53.210;5.768;2023-06-05T09:24:31;17.00;62.10
53748;DHT22;39655;53.210;5.768;2023-06-05T09:27:02;16.70;63.00
53748;DHT22;39655;53.210;5.768;2023-06-05T09:29:33;16.90;62.30
53748;DHT22;39655;53.210;5.768;2023-06-05T09:32:01;17.10;63.10
53748;DHT22;39655;53.210;5.768;2023-06-05T09:34:38;17.20;61.50
53748;DHT22;39655;53.210;5.768;2023-06-05T09:37:05;17.20;62.50
53748;DHT22;39655;53.210;5.768;2023-06-05T09:39:33;17.20;61.30
53748;DHT22;39655;53.210;5.768;2023-06-05T09:41:59;17.10;61.20
53748;DHT22;39655;53.210;5.768;2023-06-05T09:44:27;17.00;61.10
53748;DHT22;39655;53.210;5.768;2023-06-05T09:46:58;16.70;62.20
53748;DHT22;39655;53.210;5.768;2023-06-05T09:49:29;16.80;63.50
53748;DHT22;39655;53.210;5.768;2023-06-05T09:51:58;17.10;61.70
53748;DHT22;39655;53.210;5.768;2023-06-05T09:54:29;17.30;61.60
53748;DHT22;39655;53.210;5.768;2023-06-05T09:57:03;17.50;61.10
53748;DHT22;39655;53.210;5.768;2023-06-05T09:59:31;17.70;60.10
53748;DHT22;39655;53.210;5.768;2023-06-05T10:02:00;17.60;59.90
53748;DHT22;39655;53.210;5.768;2023-06-05T10:04:28;17.60;60.50
53748;DHT22;39655;53.210;5.768;2023-06-05T10:06:57;17.70;61.20
53748;DHT22;39655;53.210;5.768;2023-06-05T10:09:25;18.00;60.60
53748;DHT22;39655;53.210;5.768;2023-06-05T10:11:51;18.20;59.60
53748;DHT22;39655;53.210;5.768;2023-06-05T10:14:21;18.30;59.10
53748;DHT22;39655;53.210;5.768;2023-06-05T10:16:49;18.60;59.90
53748;DHT22;39655;53.210;5.768;2023-06-05T10:19:23;19.00;58.70
53748;DHT22;39655;53.210;5.768;2023-06-05T10:21:50;19.10;56.40
53748;DHT22;39655;53.210;5.768;2023-06-05T10:24:20;19.20;56.60
53748;DHT22;39655;53.210;5.768;2023-06-05T10:30:05;18.80;56.20
53748;DHT22;39655;53.210;5.768;2023-06-05T10:40:45;18.90;57.30
53748;DHT22;39655;53.210;5.768;2023-06-05T10:43:31;19.10;58.20
53748;DHT22;39655;53.210;5.768;2023-06-05T10:46:01;19.30;57.30
53748;DHT22;39655;53.210;5.768;2023-06-05T10:49:05;19.50;55.80
53748;DHT22;39655;53.210;5.768;2023-06-05T10:51:43;19.50;55.50
53748;DHT22;39655;53.210;5.768;2023-06-05T10:57:04;19.00;56.00
53748;DHT22;39655;53.210;5.768;2023-06-05T10:59:37;18.50;56.40
53748;DHT22;39655;53.210;5.768;2023-06-05T11:10:10;17.70;60.80
53748;DHT22;39655;53.210;5.768;2023-06-05T11:15:08;17.70;59.60
53748;DHT22;39655;53.210;5.768;2023-06-05T11:17:45;17.60;60.30
53748;DHT22;39655;53.210;5.768;2023-06-05T11:30:23;18.20;59.10
53748;DHT22;39655;53.210;5.768;2023-06-05T11:32:49;18.50;59.40
53748;DHT22;39655;53.210;5.768;2023-06-05T11:35:25;18.40;59.70
53748;DHT22;39655;53.210;5.768;2023-06-05T11:40:37;19.00;58.20
53748;DHT22;39655;53.210;5.768;2023-06-05T11:43:05;18.90;58.40
53748;DHT22;39655;53.210;5.768;2023-06-05T11:45:36;19.10;58.70
53748;DHT22;39655;53.210;5.768;2023-06-05T11:48:12;19.40;57.20
53748;DHT22;39655;53.210;5.768;2023-06-05T11:50:58;19.40;56.70
53748;DHT22;39655;53.210;5.768;2023-06-05T11:53:24;19.20;56.60
53748;DHT22;39655;53.210;5.768;2023-06-05T11:55:52;19.20;56.20
53748;DHT22;39655;53.210;5.768;2023-06-05T11:58:21;19.50;57.10
53748;DHT22;39655;53.210;5.768;2023-06-05T12:00:47;19.90;55.20
53748;DHT22;39655;53.210;5.768;2023-06-05T12:03:20;20.10;55.50
53748;DHT22;39655;53.210;5.768;2023-06-05T12:05:49;20.40;54.40
53748;DHT22;39655;53.210;5.768;2023-06-05T12:08:25;20.80;53.80
53748;DHT22;39655;53.210;5.768;2023-06-05T12:10:52;20.50;52.90
53748;DHT22;39655;53.210;5.768;2023-06-05T12:13:18;20.50;53.70
53748;DHT22;39655;53.210;5.768;2023-06-05T12:15:58;20.70;53.20
53748;DHT22;39655;53.210;5.768;2023-06-05T12:18:31;21.00;52.80
53748;DHT22;39655;53.210;5.768;2023-06-05T12:21:00;21.50;50.80
53748;DHT22;39655;53.210;5.768;2023-06-05T12:23:28;21.60;50.50
53748;DHT22;39655;53.210;5.768;2023-06-05T12:26:03;21.60;49.80
53748;DHT22;39655;53.210;5.768;2023-06-05T12:28:30;21.20;51.40
53748;DHT22;39655;53.210;5.768;2023-06-05T12:30:57;20.90;51.60
53748;DHT22;39655;53.210;5.768;2023-06-05T12:33:23;20.60;52.50
53748;DHT22;39655;53.210;5.768;2023-06-05T12:36:05;20.80;52.40
53748;DHT22;39655;53.210;5.768;2023-06-05T12:38:39;21.10;50.90
53748;DHT22;39655;53.210;5.768;2023-06-05T12:41:26;21.10;51.50
53748;DHT22;39655;53.210;5.768;2023-06-05T12:44:02;20.90;51.80
53748;DHT22;39655;53.210;5.768;2023-06-05T12:46:35;21.30;51.30
53748;DHT22;39655;53.210;5.768;2023-06-05T12:49:03;21.60;50.90
53748;DHT22;39655;53.210;5.768;2023-06-05T12:51:32;21.80;49.10
53748;DHT22;39655;53.210;5.768;2023-06-05T12:53:58;21.60;50.00
53748;DHT22;39655;53.210;5.768;2023-06-05T12:56:28;21.50;50.10
53748;DHT22;39655;53.210;5.768;2023-06-05T12:58:58;21.70;50.50
53748;DHT22;39655;53.210;5.768;2023-06-05T13:01:29;22.00;49.90
53748;DHT22;39655;53.210;5.768;2023-06-05T13:04:04;22.40;48.70
53748;DHT22;39655;53.210;5.768;2023-06-05T13:06:33;22.60;47.60
53748;DHT22;39655;53.210;5.768;2023-06-05T13:09:15;22.50;48.90
53748;DHT22;39655;53.210;5.768;2023-06-05T13:11:46;22.40;48.60
53748;DHT22;39655;53.210;5.768;2023-06-05T13:14:17;22.70;47.40
53748;DHT22;39655;53.210;5.768;2023-06-05T13:16:43;22.90;47.00
53748;DHT22;39655;53.210;5.768;2023-06-05T13:19:18;22.70;46.30
53748;DHT22;39655;53.210;5.768;2023-06-05T13:22:10;22.40;46.50
53748;DHT22;39655;53.210;5.768;2023-06-05T13:24:49;22.30;47.40
53748;DHT22;39655;53.210;5.768;2023-06-05T13:27:15;22.50;47.00
53748;DHT22;39655;53.210;5.768;2023-06-05T13:29:54;22.40;47.30
53748;DHT22;39655;53.210;5.768;2023-06-05T13:32:38;22.50;47.70
53748;DHT22;39655;53.210;5.768;2023-06-05T13:35:07;22.60;46.70
53748;DHT22;39655;53.210;5.768;2023-06-05T13:37:37;22.80;46.50
53748;DHT22;39655;53.210;5.768;2023-06-05T13:40:03;22.80;46.70
53748;DHT22;39655;53.210;5.768;2023-06-05T13:42:40;22.60;46.00
53748;DHT22;39655;53.210;5.768;2023-06-05T13:45:26;22.40;47.10
53748;DHT22;39655;53.210;5.768;2023-06-05T13:48:01;22.70;47.40
53748;DHT22;39655;53.210;5.768;2023-06-05T13:50:45;23.30;44.60
53748;DHT22;39655;53.210;5.768;2023-06-05T13:53:19;22.60;45.30
53748;DHT22;39655;53.210;5.768;2023-06-05T13:55:45;22.10;47.20
53748;DHT22;39655;53.210;5.768;2023-06-05T13:58:22;22.60;47.90
53748;DHT22;39655;53.210;5.768;2023-06-05T14:00:50;23.10;45.30
53748;DHT22;39655;53.210;5.768;2023-06-05T14:03:19;22.80;45.10
53748;DHT22;39655;53.210;5.768;2023-06-05T14:06:00;22.70;46.10
53748;DHT22;39655;53.210;5.768;2023-06-05T14:08:26;23.10;45.40
53748;DHT22;39655;53.210;5.768;2023-06-05T14:10:53;23.00;45.80
53748;DHT22;39655;53.210;5.768;2023-06-05T14:13:21;23.10;45.40
53748;DHT22;39655;53.210;5.768;2023-06-05T14:16:03;22.90;45.00
53748;DHT22;39655;53.210;5.768;2023-06-05T14:19:08;23.10;44.80
53748;DHT22;39655;53.210;5.768;2023-06-05T14:21:37;23.00;45.30
53748;DHT22;39655;53.210;5.768;2023-06-05T14:24:10;23.50;45.00
53748;DHT22;39655;53.210;5.768;2023-06-05T14:26:36;23.60;44.00
53748;DHT22;39655;53.210;5.768;2023-06-05T14:29:07;23.50;44.40
53748;DHT22;39655;53.210;5.768;2023-06-05T14:31:36;23.40;43.80
53748;DHT22;39655;53.210;5.768;2023-06-05T14:34:03;23.60;43.90
53748;DHT22;39655;53.210;5.768;2023-06-05T14:36:32;23.20;43.10
53748;DHT22;39655;53.210;5.768;2023-06-05T14:42:11;22.60;46.10
53748;DHT22;39655;53.210;5.768;2023-06-05T14:45:00;23.30;45.70
53748;DHT22;39655;53.210;5.768;2023-06-05T14:50:20;23.60;43.90
53748;DHT22;39655;53.210;5.768;2023-06-05T14:52:46;23.90;41.80
53748;DHT22;39655;53.210;5.768;2023-06-05T14:55:20;23.10;44.50
53748;DHT22;39655;53.210;5.768;2023-06-05T14:57:49;23.30;44.10
53748;DHT22;39655;53.210;5.768;2023-06-05T15:00:15;23.40;42.70
53748;DHT22;39655;53.210;5.768;2023-06-05T15:03:05;23.20;43.70
53748;DHT22;39655;53.210;5.768;2023-06-05T15:05:31;23.30;43.40
53748;DHT22;39655;53.210;5.768;2023-06-05T15:07:58;23.50;43.00
53748;DHT22;39655;53.210;5.768;2023-06-05T15:10:24;23.70;42.60
53748;DHT22;39655;53.210;5.768;2023-06-05T15:12:59;23.50;42.60
53748;DHT22;39655;53.210;5.768;2023-06-05T15:15:24;23.30;42.80
53748;DHT22;39655;53.210;5.768;2023-06-05T15:17:50;23.80;41.40
53748;DHT22;39655;53.210;5.768;2023-06-05T15:20:19;23.50;42.80
53748;DHT22;39655;53.210;5.768;2023-06-05T15:22:46;23.60;42.70
53748;DHT22;39655;53.210;5.768;2023-06-05T15:25:15;24.10;41.80
53748;DHT22;39655;53.210;5.768;2023-06-05T15:27:42;24.10;41.00
53748;DHT22;39655;53.210;5.768;2023-06-05T15:30:19;23.50;42.30
53748;DHT22;39655;53.210;5.768;2023-06-05T15:32:57;23.50;41.70
53748;DHT22;39655;53.210;5.768;2023-06-05T15:35:30;23.40;43.00
53748;DHT22;39655;53.210;5.768;2023-06-05T15:38:18;23.90;43.10
53748;DHT22;39655;53.210;5.768;2023-06-05T15:40:44;24.20;41.30
53748;DHT22;39655;53.210;5.768;2023-06-05T15:43:10;24.20;40.30
53748;DHT22;39655;53.210;5.768;2023-06-05T15:45:44;23.30;42.20
53748;DHT22;39655;53.210;5.768;2023-06-05T15:48:10;23.50;42.80
53748;DHT22;39655;53.210;5.768;2023-06-05T15:50:40;24.10;42.00
53748;DHT22;39655;53.210;5.768;2023-06-05T15:53:14;24.10;41.80
53748;DHT22;39655;53.210;5.768;2023-06-05T15:55:42;24.50;41.10
53748;DHT22;39655;53.210;5.768;2023-06-05T15:58:11;24.60;39.80
53748;DHT22;39655;53.210;5.768;2023-06-05T16:00:37;24.70;40.30
53748;DHT22;39655;53.210;5.768;2023-06-05T16:03:03;24.90;39.70
53748;DHT22;39655;53.210;5.768;2023-06-05T16:05:45;24.90;40.40
53748;DHT22;39655;53.210;5.768;2023-06-05T16:08:13;24.60;40.20
53748;DHT22;39655;53.210;5.768;2023-06-05T16:11:01;24.90;39.70
53748;DHT22;39655;53.210;5.768;2023-06-05T16:13:30;24.50;39.60
53748;DHT22;39655;53.210;5.768;2023-06-05T16:15:58;24.50;40.00
53748;DHT22;39655;53.210;5.768;2023-06-05T16:18:25;24.60;40.10
53748;DHT22;39655;53.210;5.768;2023-06-05T16:20:54;24.90;39.60
53748;DHT22;39655;53.210;5.768;2023-06-05T16:23:25;24.90;38.60
53748;DHT22;39655;53.210;5.768;2023-06-05T16:25:54;24.20;40.20
53748;DHT22;39655;53.210;5.768;2023-06-05T16:28:20;24.50;40.50
53748;DHT22;39655;53.210;5.768;2023-06-05T16:30:48;24.70;40.40